sensor_id;sensor_type;location;lat;lon;timestamp;temperature;humidity
19330;DHT22;9799;48.214;16.388;2022-12-07T00:02:01;6.50;99.90
19330;DHT22;9799;48.214;16.388;2022-12-07T00:05:22;6.50;99.90
19330;DHT22;9799;48.214;16.388;2022-12-07T00:08:43;6.50;99.90
19330;DHT22;9799;48.214;16.388;2022-12-07T00:12:06;6.60;99.90
19330;DHT22;9799;48.214;16.388;2022-12-07T00:15:27;6.60;99.90
19330;DHT22;9799;48.214;16.388;2022-12-07T00:18:48;6.50;99.90
19330;DHT22;9799;48.214;16.388;2022-12-07T00:22:09;6.60;99.90
19330;DHT22;9799;48.214;16.388;2022-12-07T00:25:31;6.70;99.90
19330;DHT22;9799;48.214;16.388;2022-12-07T00:28:56;6.60;99.90
19330;DHT22;9799;48.214;16.388;2022-12-07T00:32:17;6.60;99.90
19330;DHT22;9799;48.214;16.388;2022-12-07T00:35:38;6.60;99.90
19330;DHT22;9799;48.214;16.388;2022-12-07T00:39:00;6.70;99.90
19330;DHT22;9799;48.214;16.388;2022-12-07T00:42:21;6.70;99.90
19330;DHT22;9799;48.214;16.388;2022-12-07T00:45:44;6.70;99.90
19330;DHT22;9799;48.214;16.388;2022-12-07T00:49:05;6.60;99.90
19330;DHT22;9799;48.214;16.388;2022-12-07T00:52:26;6.70;99.90
19330;DHT22;9799;48.214;16.388;2022-12-07T00:55:47;6.70;99.90
19330;DHT22;9799;48.214;16.388;2022-12-07T00:59:12;6.70;99.90
19330;DHT22;9799;48.214;16.388;2022-12-07T01:02:35;6.60;99.90
19330;DHT22;9799;48.214;16.388;2022-12-07T01:05:57;6.60;99.90
19330;DHT22;9799;48.214;16.388;2022-12-07T01:09:18;6.70;99.90
19330;DHT22;9799;48.214;16.388;2022-12-07T01:12:40;6.70;99.90
19330;DHT22;9799;48.214;16.388;2022-12-07T01:16:03;6.70;99.90
19330;DHT22;9799;48.214;16.388;2022-12-07T01:19:26;6.70;99.90
19330;DHT22;9799;48.214;16.388;2022-12-07T01:22:47;6.70;99.90
19330;DHT22;9799;48.214;16.388;2022-12-07T01:26:11;6.70;99.90
19330;DHT22;9799;48.214;16.388;2022-12-07T01:29:32;6.60;99.90
19330;DHT22;9799;48.214;16.388;2022-12-07T01:32:54;6.60;99.90
19330;DHT22;9799;48.214;16.388;2022-12-07T01:36:18;6.70;99.90
19330;DHT22;9799;48.214;16.388;2022-12-07T01:39:40;6.70;99.90
19330;DHT22;9799;48.214;16.388;2022-12-07T01:43:01;6.70;99.90
19330;DHT22;9799;48.214;16.388;2022-12-07T01:46:23;6.70;99.90
19330;DHT22;9799;48.214;16.388;2022-12-07T01:49:46;6.60;99.90
19330;DHT22;9799;48.214;16.388;2022-12-07T01:53:10;6.60;99.90
19330;DHT22;9799;48.214;16.388;2022-12-07T01:56:32;6.60;99.90
19330;DHT22;9799;48.214;16.388;2022-12-07T01:59:55;6.50;99.90
19330;DHT22;9799;48.214;16.388;2022-12-07T02:03:19;6.60;99.90
19330;DHT22;9799;48.214;16.388;2022-12-07T02:06:43;6.60;99.90
19330;DHT22;9799;48.214;16.388;2022-12-07T02:10:18;6.60;99.90
19330;DHT22;9799;48.214;16.388;2022-12-07T02:13:41;6.50;99.90
19330;DHT22;9799;48.214;16.388;2022-12-07T02:17:09;6.50;99.90
19330;DHT22;9799;48.214;16.388;2022-12-07T02:20:33;6.50;99.90
19330;DHT22;9799;48.214;16.388;2022-12-07T02:24:24;6.50;99.90
19330;DHT22;9799;48.214;16.388;2022-12-07T02:27:52;6.60;99.90
19330;DHT22;9799;48.214;16.388;2022-12-07T02:31:21;6.60;99.90
19330;DHT22;9799;48.214;16.388;2022-12-07T02:34:48;6.50;99.90
19330;DHT22;9799;48.214;16.388;2022-12-07T02:38:14;6.50;99.90
19330;DHT22;9799;48.214;16.388;2022-12-07T02:41:39;6.50;99.90
19330;DHT22;9799;48.214;16.388;2022-12-07T02:45:03;6.60;99.90
19330;DHT22;9799;48.214;16.388;2022-12-07T02:48:27;6.60;99.90
19330;DHT22;9799;48.214;16.388;2022-12-07T02:51:49;6.60;99.90
19330;DHT22;9799;48.214;16.388;2022-12-07T02:55:10;6.50;99.90
19330;DHT22;9799;48.214;16.388;2022-12-07T02:58:41;6.50;99.90
19330;DHT22;9799;48.214;16.388;2022-12-07T03:02:14;6.60;99.90
19330;DHT22;9799;48.214;16.388;2022-12-07T03:05:56;6.50;99.90
19330;DHT22;9799;48.214;16.388;2022-12-07T03:09:23;6.60;99.90
19330;DHT22;9799;48.214;16.388;2022-12-07T03:12:53;6.60;99.90
19330;DHT22;9799;48.214;16.388;2022-12-07T03:16:18;6.50;99.90
19330;DHT22;9799;48.214;16.388;2022-12-07T03:19:41;6.50;99.90
19330;DHT22;9799;48.214;16.388;2022-12-07T03:23:08;6.40;99.90
19330;DHT22;9799;48.214;16.388;2022-12-07T03:26:34;6.40;99.90
19330;DHT22;9799;48.214;16.388;2022-12-07T03:30:00;6.50;99.90
19330;DHT22;9799;48.214;16.388;2022-12-07T03:33:25;6.50;99.90
19330;DHT22;9799;48.214;16.388;2022-12-07T03:36:52;6.40;99.90
19330;DHT22;9799;48.214;16.388;2022-12-07T03:40:21;6.30;99.90
19330;DHT22;9799;48.214;16.388;2022-12-07T03:43:44;6.30;99.90
19330;DHT22;9799;48.214;16.388;2022-12-07T03:47:09;6.40;99.90
19330;DHT22;9799;48.214;16.388;2022-12-07T03:50:38;6.30;99.90
19330;DHT22;9799;48.214;16.388;2022-12-07T03:54:07;6.30;99.90
19330;DHT22;9799;48.214;16.388;2022-12-07T03:57:33;6.30;99.90
19330;DHT22;9799;48.214;16.388;2022-12-07T04:00:56;6.40;99.90
19330;DHT22;9799;48.214;16.388;2022-12-07T04:04:17;6.40;99.90
19330;DHT22;9799;48.214;16.388;2022-12-07T04:07:39;6.30;99.90
19330;DHT22;9799;48.214;16.388;2022-12-07T04:11:01;6.30;99.90
19330;DHT22;9799;48.214;16.388;2022-12-07T04:14:23;6.30;99.90
19330;DHT22;9799;48.214;16.388;2022-12-07T04:17:44;6.40;99.90
19330;DHT22;9799;48.214;16.388;2022-12-07T04:21:06;6.40;99.90
19330;DHT22;9799;48.214;16.388;2022-12-07T04:24:27;6.40;99.90
19330;DHT22;9799;48.214;16.388;2022-12-07T04:27:48;6.40;99.90
19330;DHT22;9799;48.214;16.388;2022-12-07T04:31:11;6.30;99.90
19330;DHT22;9799;48.214;16.388;2022-12-07T04:34:32;6.30;99.90
19330;DHT22;9799;48.214;16.388;2022-12-07T04:37:53;6.40;99.90
19330;DHT22;9799;48.214;16.388;2022-12-07T04:41:14;6.40;99.90
19330;DHT22;9799;48.214;16.388;2022-12-07T04:44:36;6.30;99.90
19330;DHT22;9799;48.214;16.388;2022-12-07T04:47:59;6.30;99.90
19330;DHT22;9799;48.214;16.388;2022-12-07T04:51:22;6.40;99.90
19330;DHT22;9799;48.214;16.388;2022-12-07T04:54:43;6.40;99.90
19330;DHT22;9799;48.214;16.388;2022-12-07T04:58:04;6.40;99.90
19330;DHT22;9799;48.214;16.388;2022-12-07T05:01:25;6.30;99.90
19330;DHT22;9799;48.214;16.388;2022-12-07T05:04:48;6.40;99.90
19330;DHT22;9799;48.214;16.388;2022-12-07T05:08:09;6.40;99.90
19330;DHT22;9799;48.214;16.388;2022-12-07T05:11:30;6.40;99.90
19330;DHT22;9799;48.214;16.388;2022-12-07T05:15:00;6.30;99.90
19330;DHT22;9799;48.214;16.388;2022-12-07T05:18:22;6.30;99.90
19330;DHT22;9799;48.214;16.388;2022-12-07T05:21:44;6.30;99.90
19330;DHT22;9799;48.214;16.388;2022-12-07T05:25:06;6.40;99.90
19330;DHT22;9799;48.214;16.388;2022-12-07T05:28:27;6.40;99.90
19330;DHT22;9799;48.214;16.388;2022-12-07T05:31:48;6.40;99.90
19330;DHT22;9799;48.214;16.388;2022-12-07T05:35:09;6.50;99.90
19330;DHT22;9799;48.214;16.388;2022-12-07T05:38:32;6.40;99.90
19330;DHT22;9799;48.214;16.388;2022-12-07T05:41:54;6.40;99.90
19330;DHT22;9799;48.214;16.388;2022-12-07T05:45:33;6.50;99.90
19330;DHT22;9799;48.214;16.388;2022-12-07T05:48:54;6.50;99.90
19330;DHT22;9799;48.214;16.388;2022-12-07T05:52:15;6.40;99.90
19330;DHT22;9799;48.214;16.388;2022-12-07T05:55:38;6.40;99.90
19330;DHT22;9799;48.214;16.388;2022-12-07T05:58:59;6.40;99.90
19330;DHT22;9799;48.214;16.388;2022-12-07T06:02:38;6.50;99.90
19330;DHT22;9799;48.214;16.388;2022-12-07T06:05:59;6.50;99.90
19330;DHT22;9799;48.214;16.388;2022-12-07T06:09:22;6.50;99.90
19330;DHT22;9799;48.214;16.388;2022-12-07T06:12:45;6.60;99.90
19330;DHT22;9799;48.214;16.388;2022-12-07T06:16:06;6.60;99.90
19330;DHT22;9799;48.214;16.388;2022-12-07T06:19:27;6.50;99.90
19330;DHT22;9799;48.214;16.388;2022-12-07T06:22:48;6.60;99.90
19330;DHT22;9799;48.214;16.388;2022-12-07T06:26:10;6.60;99.90
19330;DHT22;9799;48.214;16.388;2022-12-07T06:29:33;6.70;99.90
19330;DHT22;9799;48.214;16.388;2022-12-07T06:32:54;6.60;99.90
19330;DHT22;9799;48.214;16.388;2022-12-07T06:36:15;6.70;99.90
19330;DHT22;9799;48.214;16.388;2022-12-07T06:39:37;6.70;99.90
19330;DHT22;9799;48.214;16.388;2022-12-07T06:42:58;6.60;99.90
19330;DHT22;9799;48.214;16.388;2022-12-07T06:46:21;6.60;99.90
19330;DHT22;9799;48.214;16.388;2022-12-07T06:49:42;6.60;99.90
19330;DHT22;9799;48.214;16.388;2022-12-07T06:53:03;6.50;99.90
19330;DHT22;9799;48.214;16.388;2022-12-07T06:56:24;6.60;99.90
19330;DHT22;9799;48.214;16.388;2022-12-07T06:59:46;6.70;99.90
19330;DHT22;9799;48.214;16.388;2022-12-07T07:03:08;6.70;99.90
19330;DHT22;9799;48.214;16.388;2022-12-07T07:06:29;6.80;99.90
19330;DHT22;9799;48.214;16.388;2022-12-07T07:09:50;6.80;99.90
19330;DHT22;9799;48.214;16.388;2022-12-07T07:13:12;6.70;99.90
19330;DHT22;9799;48.214;16.388;2022-12-07T07:16:32;6.70;99.90
19330;DHT22;9799;48.214;16.388;2022-12-07T07:19:55;6.60;99.90
19330;DHT22;9799;48.214;16.388;2022-12-07T07:23:16;6.70;99.90
19330;DHT22;9799;48.214;16.388;2022-12-07T07:26:37;6.80;99.90
19330;DHT22;9799;48.214;16.388;2022-12-07T07:29:59;6.90;99.90
19330;DHT22;9799;48.214;16.388;2022-12-07T07:33:20;6.90;99.90
19330;DHT22;9799;48.214;16.388;2022-12-07T07:36:43;6.90;99.90
19330;DHT22;9799;48.214;16.388;2022-12-07T07:40:05;6.80;99.90
19330;DHT22;9799;48.214;16.388;2022-12-07T07:43:26;6.80;99.90
19330;DHT22;9799;48.214;16.388;2022-12-07T07:46:47;6.80;99.90
19330;DHT22;9799;48.214;16.388;2022-12-07T07:50:10;6.80;99.90
19330;DHT22;9799;48.214;16.388;2022-12-07T07:53:32;6.80;99.90
19330;DHT22;9799;48.214;16.388;2022-12-07T07:56:54;6.80;99.90
19330;DHT22;9799;48.214;16.388;2022-12-07T08:00:16;6.70;99.90
19330;DHT22;9799;48.214;16.388;2022-12-07T08:03:37;6.70;99.90
19330;DHT22;9799;48.214;16.388;2022-12-07T08:06:58;6.70;99.90
19330;DHT22;9799;48.214;16.388;2022-12-07T08:10:21;6.70;99.90
19330;DHT22;9799;48.214;16.388;2022-12-07T08:13:42;6.80;99.90
19330;DHT22;9799;48.214;16.388;2022-12-07T08:17:06;6.90;99.90
19330;DHT22;9799;48.214;16.388;2022-12-07T08:20:29;6.90;99.90
19330;DHT22;9799;48.214;16.388;2022-12-07T08:23:51;6.70;99.90
19330;DHT22;9799;48.214;16.388;2022-12-07T08:27:13;6.80;99.90
19330;DHT22;9799;48.214;16.388;2022-12-07T08:30:34;6.70;99.90
19330;DHT22;9799;48.214;16.388;2022-12-07T08:33:56;6.70;99.90
19330;DHT22;9799;48.214;16.388;2022-12-07T08:37:17;6.70;99.90
19330;DHT22;9799;48.214;16.388;2022-12-07T08:40:38;6.70;99.90
19330;DHT22;9799;48.214;16.388;2022-12-07T08:44:01;6.70;99.90
19330;DHT22;9799;48.214;16.388;2022-12-07T08:47:23;6.60;99.90
19330;DHT22;9799;48.214;16.388;2022-12-07T08:50:45;6.70;99.90
19330;DHT22;9799;48.214;16.388;2022-12-07T08:54:09;6.70;99.90
19330;DHT22;9799;48.214;16.388;2022-12-07T08:57:32;6.80;99.90
19330;DHT22;9799;48.214;16.388;2022-12-07T09:00:56;6.80;99.90
19330;DHT22;9799;48.214;16.388;2022-12-07T09:04:17;6.70;99.90
19330;DHT22;9799;48.214;16.388;2022-12-07T09:07:38;6.60;99.90
19330;DHT22;9799;48.214;16.388;2022-12-07T09:11:00;6.60;99.90
19330;DHT22;9799;48.214;16.388;2022-12-07T09:14:21;6.60;99.90
19330;DHT22;9799;48.214;16.388;2022-12-07T09:17:44;6.60;99.90
19330;DHT22;9799;48.214;16.388;2022-12-07T09:21:05;6.60;99.90
19330;DHT22;9799;48.214;16.388;2022-12-07T09:24:26;6.60;99.90
19330;DHT22;9799;48.214;16.388;2022-12-07T09:27:48;6.60;99.90
19330;DHT22;9799;48.214;16.388;2022-12-07T09:31:09;6.50;99.90
19330;DHT22;9799;48.214;16.388;2022-12-07T09:34:32;6.60;99.90
19330;DHT22;9799;48.214;16.388;2022-12-07T09:37:53;6.60;99.90
19330;DHT22;9799;48.214;16.388;2022-12-07T09:41:14;6.60;99.90
19330;DHT22;9799;48.214;16.388;2022-12-07T09:44:36;6.70;99.90
19330;DHT22;9799;48.214;16.388;2022-12-07T09:47:57;6.90;99.90
19330;DHT22;9799;48.214;16.388;2022-12-07T09:51:22;6.90;99.90
19330;DHT22;9799;48.214;16.388;2022-12-07T09:54:46;6.70;99.90
19330;DHT22;9799;48.214;16.388;2022-12-07T09:58:12;6.80;99.90
19330;DHT22;9799;48.214;16.388;2022-12-07T10:01:37;6.70;99.90
19330;DHT22;9799;48.214;16.388;2022-12-07T10:04:59;6.80;99.90
19330;DHT22;9799;48.214;16.388;2022-12-07T10:08:22;6.80;99.90
19330;DHT22;9799;48.214;16.388;2022-12-07T10:12:04;6.80;99.90
19330;DHT22;9799;48.214;16.388;2022-12-07T10:15:47;6.80;99.90
19330;DHT22;9799;48.214;16.388;2022-12-07T10:19:21;6.90;99.90
19330;DHT22;9799;48.214;16.388;2022-12-07T10:22:58;6.90;99.90
19330;DHT22;9799;48.214;16.388;2022-12-07T10:26:27;6.80;99.90
19330;DHT22;9799;48.214;16.388;2022-12-07T10:29:51;6.80;99.90
19330;DHT22;9799;48.214;16.388;2022-12-07T10:33:34;6.80;99.90
19330;DHT22;9799;48.214;16.388;2022-12-07T10:37:14;6.80;99.90
19330;DHT22;9799;48.214;16.388;2022-12-07T10:40:36;6.80;99.90
19330;DHT22;9799;48.214;16.388;2022-12-07T10:43:59;6.70;99.90
19330;DHT22;9799;48.214;16.388;2022-12-07T10:47:31;6.80;99.90
19330;DHT22;9799;48.214;16.388;2022-12-07T10:51:04;6.80;99.90
19330;DHT22;9799;48.214;16.388;2022-12-07T10:54:37;6.90;99.90
19330;DHT22;9799;48.214;16.388;2022-12-07T10:58:28;6.90;99.90
19330;DHT22;9799;48.214;16.388;2022-12-07T11:01:58;7.00;99.90
19330;DHT22;9799;48.214;16.388;2022-12-07T11:05:27;7.10;99.90
19330;DHT22;9799;48.214;16.388;2022-12-07T11:09:03;7.20;99.90
19330;DHT22;9799;48.214;16.388;2022-12-07T11:12:39;7.20;99.90
19330;DHT22;9799;48.214;16.388;2022-12-07T11:16:40;7.20;99.90
19330;DHT22;9799;48.214;16.388;2022-12-07T11:20:19;7.30;99.90
19330;DHT22;9799;48.214;16.388;2022-12-07T11:23:48;7.20;99.90
19330;DHT22;9799;48.214;16.388;2022-12-07T11:27:19;7.20;99.90
19330;DHT22;9799;48.214;16.388;2022-12-07T11:30:47;7.10;99.90
19330;DHT22;9799;48.214;16.388;2022-12-07T11:34:18;7.10;99.90
19330;DHT22;9799;48.214;16.388;2022-12-07T11:37:43;7.00;99.90
19330;DHT22;9799;48.214;16.388;2022-12-07T11:41:06;7.10;99.90
19330;DHT22;9799;48.214;16.388;2022-12-07T11:44:47;7.00;99.90
19330;DHT22;9799;48.214;16.388;2022-12-07T11:48:15;7.00;99.90
19330;DHT22;9799;48.214;16.388;2022-12-07T11:51:40;7.10;99.90
19330;DHT22;9799;48.214;16.388;2022-12-07T11:55:13;6.90;99.90
19330;DHT22;9799;48.214;16.388;2022-12-07T11:58:44;6.90;99.90
19330;DHT22;9799;48.214;16.388;2022-12-07T12:02:13;6.90;99.90
19330;DHT22;9799;48.214;16.388;2022-12-07T12:05:35;6.90;99.90
19330;DHT22;9799;48.214;16.388;2022-12-07T12:09:02;6.90;99.90
19330;DHT22;9799;48.214;16.388;2022-12-07T12:12:45;6.80;99.90
19330;DHT22;9799;48.214;16.388;2022-12-07T12:16:22;6.90;99.90
19330;DHT22;9799;48.214;16.388;2022-12-07T12:20:00;6.90;99.90
19330;DHT22;9799;48.214;16.388;2022-12-07T12:23:23;6.90;99.90
19330;DHT22;9799;48.214;16.388;2022-12-07T12:26:50;7.00;99.90
19330;DHT22;9799;48.214;16.388;2022-12-07T12:30:33;7.10;99.90
19330;DHT22;9799;48.214;16.388;2022-12-07T12:33:56;7.10;99.90
19330;DHT22;9799;48.214;16.388;2022-12-07T12:37:39;7.10;99.90
19330;DHT22;9799;48.214;16.388;2022-12-07T12:41:01;7.20;99.90
19330;DHT22;9799;48.214;16.388;2022-12-07T12:48:35;7.00;99.90
19330;DHT22;9799;48.214;16.388;2022-12-07T12:51:58;7.10;99.90
19330;DHT22;9799;48.214;16.388;2022-12-07T12:59:33;7.00;99.90
19330;DHT22;9799;48.214;16.388;2022-12-07T13:02:56;6.90;99.90
19330;DHT22;9799;48.214;16.388;2022-12-07T13:06:33;6.90;99.90
19330;DHT22;9799;48.214;16.388;2022-12-07T13:09:55;6.90;99.90
19330;DHT22;9799;48.214;16.388;2022-12-07T13:13:30;6.90;99.90
19330;DHT22;9799;48.214;16.388;2022-12-07T13:16:51;6.90;99.90
19330;DHT22;9799;48.214;16.388;2022-12-07T13:20:47;6.90;99.90
19330;DHT22;9799;48.214;16.388;2022-12-07T13:24:12;7.00;99.90
19330;DHT22;9799;48.214;16.388;2022-12-07T13:27:34;7.00;99.90
19330;DHT22;9799;48.214;16.388;2022-12-07T13:31:04;7.00;99.90
19330;DHT22;9799;48.214;16.388;2022-12-07T13:34:32;7.10;99.90
19330;DHT22;9799;48.214;16.388;2022-12-07T13:37:54;7.00;99.90
19330;DHT22;9799;48.214;16.388;2022-12-07T13:41:19;6.90;99.90
19330;DHT22;9799;48.214;16.388;2022-12-07T13:44:41;6.90;99.90
19330;DHT22;9799;48.214;16.388;2022-12-07T13:48:03;6.80;99.90
19330;DHT22;9799;48.214;16.388;2022-12-07T13:51:26;6.90;99.90
19330;DHT22;9799;48.214;16.388;2022-12-07T13:54:56;6.90;99.90
19330;DHT22;9799;48.214;16.388;2022-12-07T13:58:19;6.90;99.90
19330;DHT22;9799;48.214;16.388;2022-12-07T14:01:40;6.90;99.90
19330;DHT22;9799;48.214;16.388;2022-12-07T14:05:08;6.80;99.90
19330;DHT22;9799;48.214;16.388;2022-12-07T14:08:30;6.80;99.90
19330;DHT22;9799;48.214;16.388;2022-12-07T14:11:53;6.80;99.90
19330;DHT22;9799;48.214;16.388;2022-12-07T14:15:21;6.70;99.90
19330;DHT22;9799;48.214;16.388;2022-12-07T14:18:42;6.70;99.90
19330;DHT22;9799;48.214;16.388;2022-12-07T14:22:07;6.70;99.90
19330;DHT22;9799;48.214;16.388;2022-12-07T14:25:32;6.70;99.90
19330;DHT22;9799;48.214;16.388;2022-12-07T14:29:21;6.70;99.90
19330;DHT22;9799;48.214;16.388;2022-12-07T14:32:44;6.70;99.90
19330;DHT22;9799;48.214;16.388;2022-12-07T14:36:09;6.70;99.90
19330;DHT22;9799;48.214;16.388;2022-12-07T14:39:30;6.70;99.90
19330;DHT22;9799;48.214;16.388;2022-12-07T14:42:53;6.80;99.90
19330;DHT22;9799;48.214;16.388;2022-12-07T14:46:15;6.70;99.90
19330;DHT22;9799;48.214;16.388;2022-12-07T14:49:38;6.70;99.90
19330;DHT22;9799;48.214;16.388;2022-12-07T14:53:03;6.60;99.90
19330;DHT22;9799;48.214;16.388;2022-12-07T14:56:26;6.60;99.90
19330;DHT22;9799;48.214;16.388;2022-12-07T14:59:48;6.50;99.90
19330;DHT22;9799;48.214;16.388;2022-12-07T15:03:09;6.50;99.90
19330;DHT22;9799;48.214;16.388;2022-12-07T15:06:31;6.50;99.90
19330;DHT22;9799;48.214;16.388;2022-12-07T15:09:52;6.50;99.90
19330;DHT22;9799;48.214;16.388;2022-12-07T15:13:14;6.60;99.90
19330;DHT22;9799;48.214;16.388;2022-12-07T15:16:53;6.60;99.90
19330;DHT22;9799;48.214;16.388;2022-12-07T15:20:15;6.70;99.90
19330;DHT22;9799;48.214;16.388;2022-12-07T15:23:38;6.70;99.90
19330;DHT22;9799;48.214;16.388;2022-12-07T15:26:59;6.60;99.90
19330;DHT22;9799;48.214;16.388;2022-12-07T15:30:20;6.70;99.90
19330;DHT22;9799;48.214;16.388;2022-12-07T15:33:42;6.60;99.90
19330;DHT22;9799;48.214;16.388;2022-12-07T15:37:03;6.60;99.90
19330;DHT22;9799;48.214;16.388;2022-12-07T15:40:26;6.60;99.90
19330;DHT22;9799;48.214;16.388;2022-12-07T15:43:47;6.60;99.90
19330;DHT22;9799;48.214;16.388;2022-12-07T15:47:26;6.60;99.90
19330;DHT22;9799;48.214;16.388;2022-12-07T15:50:47;6.60;99.90
19330;DHT22;9799;48.214;16.388;2022-12-07T15:54:13;6.70;99.90
19330;DHT22;9799;48.214;16.388;2022-12-07T15:57:37;6.60;99.90
19330;DHT22;9799;48.214;16.388;2022-12-07T16:00:58;6.60;99.90
19330;DHT22;9799;48.214;16.388;2022-12-07T16:04:19;6.70;99.90
19330;DHT22;9799;48.214;16.388;2022-12-07T16:07:41;6.50;99.90
19330;DHT22;9799;48.214;16.388;2022-12-07T16:11:05;6.40;99.90
19330;DHT22;9799;48.214;16.388;2022-12-07T16:14:28;6.40;99.90
19330;DHT22;9799;48.214;16.388;2022-12-07T16:17:51;6.50;99.90
19330;DHT22;9799;48.214;16.388;2022-12-07T16:21:14;6.30;99.90
19330;DHT22;9799;48.214;16.388;2022-12-07T16:24:35;6.30;99.90
19330;DHT22;9799;48.214;16.388;2022-12-07T16:27:56;6.30;99.90
19330;DHT22;9799;48.214;16.388;2022-12-07T16:31:20;6.30;99.90
19330;DHT22;9799;48.214;16.388;2022-12-07T16:34:42;6.40;99.90
19330;DHT22;9799;48.214;16.388;2022-12-07T16:38:03;6.40;99.90
19330;DHT22;9799;48.214;16.388;2022-12-07T16:41:24;6.40;99.90
19330;DHT22;9799;48.214;16.388;2022-12-07T16:44:45;6.20;99.90
19330;DHT22;9799;48.214;16.388;2022-12-07T16:48:08;6.20;99.90
19330;DHT22;9799;48.214;16.388;2022-12-07T16:51:29;6.00;99.90
19330;DHT22;9799;48.214;16.388;2022-12-07T16:54:51;6.10;99.90
19330;DHT22;9799;48.214;16.388;2022-12-07T16:58:13;6.10;99.90
19330;DHT22;9799;48.214;16.388;2022-12-07T17:01:36;6.10;99.90
19330;DHT22;9799;48.214;16.388;2022-12-07T17:04:59;6.10;99.90
19330;DHT22;9799;48.214;16.388;2022-12-07T17:08:20;6.00;99.90
19330;DHT22;9799;48.214;16.388;2022-12-07T17:11:44;6.10;99.90
19330;DHT22;9799;48.214;16.388;2022-12-07T17:15:05;6.00;99.90
19330;DHT22;9799;48.214;16.388;2022-12-07T17:18:40;6.10;99.90
19330;DHT22;9799;48.214;16.388;2022-12-07T17:22:03;6.00;99.90
19330;DHT22;9799;48.214;16.388;2022-12-07T17:25:24;6.00;99.90
19330;DHT22;9799;48.214;16.388;2022-12-07T17:28:46;6.10;99.90
19330;DHT22;9799;48.214;16.388;2022-12-07T17:32:07;6.10;99.90
19330;DHT22;9799;48.214;16.388;2022-12-07T17:35:29;6.10;99.90
19330;DHT22;9799;48.214;16.388;2022-12-07T17:38:53;6.10;99.90
19330;DHT22;9799;48.214;16.388;2022-12-07T17:42:14;6.00;99.90
19330;DHT22;9799;48.214;16.388;2022-12-07T17:45:53;6.00;99.90
19330;DHT22;9799;48.214;16.388;2022-12-07T17:49:15;6.10;99.90
19330;DHT22;9799;48.214;16.388;2022-12-07T17:52:37;6.00;99.90
19330;DHT22;9799;48.214;16.388;2022-12-07T17:56:18;6.10;99.90
19330;DHT22;9799;48.214;16.388;2022-12-07T17:59:39;6.10;99.90
19330;DHT22;9799;48.214;16.388;2022-12-07T18:03:01;6.00;99.90
19330;DHT22;9799;48.214;16.388;2022-12-07T18:06:22;6.00;99.90
19330;DHT22;9799;48.214;16.388;2022-12-07T18:09:45;6.00;99.90
19330;DHT22;9799;48.214;16.388;2022-12-07T18:13:08;6.10;99.90
19330;DHT22;9799;48.214;16.388;2022-12-07T18:16:47;6.10;99.90
19330;DHT22;9799;48.214;16.388;2022-12-07T18:20:10;6.20;99.90
19330;DHT22;9799;48.214;16.388;2022-12-07T18:23:32;6.20;99.90
19330;DHT22;9799;48.214;16.388;2022-12-07T18:26:54;6.20;99.90
19330;DHT22;9799;48.214;16.388;2022-12-07T18:30:17;6.20;99.90
19330;DHT22;9799;48.214;16.388;2022-12-07T18:33:39;6.20;99.90
19330;DHT22;9799;48.214;16.388;2022-12-07T18:37:01;6.20;99.90
19330;DHT22;9799;48.214;16.388;2022-12-07T18:40:23;6.10;99.90
19330;DHT22;9799;48.214;16.388;2022-12-07T18:43:45;6.10;99.90
19330;DHT22;9799;48.214;16.388;2022-12-07T18:47:08;6.10;99.90
19330;DHT22;9799;48.214;16.388;2022-12-07T18:50:30;6.10;99.90
19330;DHT22;9799;48.214;16.388;2022-12-07T18:53:54;6.20;99.90
19330;DHT22;9799;48.214;16.388;2022-12-07T18:57:17;6.30;99.90
19330;DHT22;9799;48.214;16.388;2022-12-07T19:00:39;6.30;99.90
19330;DHT22;9799;48.214;16.388;2022-12-07T19:04:04;6.20;99.90
19330;DHT22;9799;48.214;16.388;2022-12-07T19:07:26;6.30;99.90
19330;DHT22;9799;48.214;16.388;2022-12-07T19:10:47;6.40;99.90
19330;DHT22;9799;48.214;16.388;2022-12-07T19:14:10;6.40;99.90
19330;DHT22;9799;48.214;16.388;2022-12-07T19:17:32;6.40;99.90
19330;DHT22;9799;48.214;16.388;2022-12-07T19:20:57;6.30;99.90
19330;DHT22;9799;48.214;16.388;2022-12-07T19:24:19;6.20;99.90
19330;DHT22;9799;48.214;16.388;2022-12-07T19:27:41;6.10;99.90
19330;DHT22;9799;48.214;16.388;2022-12-07T19:31:05;6.10;99.90
19330;DHT22;9799;48.214;16.388;2022-12-07T19:34:27;6.10;99.90
19330;DHT22;9799;48.214;16.388;2022-12-07T19:37:50;6.20;99.90
19330;DHT22;9799;48.214;16.388;2022-12-07T19:41:13;6.20;99.90
19330;DHT22;9799;48.214;16.388;2022-12-07T19:44:49;6.30;99.90
19330;DHT22;9799;48.214;16.388;2022-12-07T19:48:12;6.30;99.90
19330;DHT22;9799;48.214;16.388;2022-12-07T19:51:33;6.30;99.90
19330;DHT22;9799;48.214;16.388;2022-12-07T19:54:57;6.40;99.90
19330;DHT22;9799;48.214;16.388;2022-12-07T19:58:19;6.30;99.90
19330;DHT22;9799;48.214;16.388;2022-12-07T20:01:42;6.30;99.90
19330;DHT22;9799;48.214;16.388;2022-12-07T20:05:04;6.40;99.90
19330;DHT22;9799;48.214;16.388;2022-12-07T20:08:28;6.50;99.90
19330;DHT22;9799;48.214;16.388;2022-12-07T20:11:52;6.50;99.90
19330;DHT22;9799;48.214;16.388;2022-12-07T20:15:31;6.50;99.90
19330;DHT22;9799;48.214;16.388;2022-12-07T20:18:53;6.50;99.90
19330;DHT22;9799;48.214;16.388;2022-12-07T20:22:15;6.40;99.90
19330;DHT22;9799;48.214;16.388;2022-12-07T20:25:37;6.40;99.90
19330;DHT22;9799;48.214;16.388;2022-12-07T20:29:00;6.50;99.90
19330;DHT22;9799;48.214;16.388;2022-12-07T20:32:25;6.50;99.90
19330;DHT22;9799;48.214;16.388;2022-12-07T20:35:47;6.60;99.90
19330;DHT22;9799;48.214;16.388;2022-12-07T20:39:10;6.60;99.90
19330;DHT22;9799;48.214;16.388;2022-12-07T20:42:31;6.70;99.90
19330;DHT22;9799;48.214;16.388;2022-12-07T20:46:00;6.70;99.90
19330;DHT22;9799;48.214;16.388;2022-12-07T20:49:22;6.70;99.90
19330;DHT22;9799;48.214;16.388;2022-12-07T20:52:44;6.70;99.90
19330;DHT22;9799;48.214;16.388;2022-12-07T20:56:06;6.70;99.90
19330;DHT22;9799;48.214;16.388;2022-12-07T20:59:28;6.50;99.90
19330;DHT22;9799;48.214;16.388;2022-12-07T21:02:51;6.60;99.90
19330;DHT22;9799;48.214;16.388;2022-12-07T21:06:14;6.70;99.90
19330;DHT22;9799;48.214;16.388;2022-12-07T21:09:35;6.70;99.90
19330;DHT22;9799;48.214;16.388;2022-12-07T21:12:57;6.70;99.90
19330;DHT22;9799;48.214;16.388;2022-12-07T21:16:20;6.30;99.90
19330;DHT22;9799;48.214;16.388;2022-12-07T21:19:43;6.20;99.90
19330;DHT22;9799;48.214;16.388;2022-12-07T21:23:04;6.30;99.90
19330;DHT22;9799;48.214;16.388;2022-12-07T21:26:26;6.40;99.90
19330;DHT22;9799;48.214;16.388;2022-12-07T21:29:47;6.50;99.90
19330;DHT22;9799;48.214;16.388;2022-12-07T21:33:08;6.30;99.90
19330;DHT22;9799;48.214;16.388;2022-12-07T21:36:31;6.40;99.90
19330;DHT22;9799;48.214;16.388;2022-12-07T21:39:53;6.40;99.90
19330;DHT22;9799;48.214;16.388;2022-12-07T21:43:14;6.30;99.90
19330;DHT22;9799;48.214;16.388;2022-12-07T21:46:36;6.20;99.90
19330;DHT22;9799;48.214;16.388;2022-12-07T21:49:58;6.40;99.90
19330;DHT22;9799;48.214;16.388;2022-12-07T21:53:20;6.30;99.90
19330;DHT22;9799;48.214;16.388;2022-12-07T21:56:42;6.20;99.90
19330;DHT22;9799;48.214;16.388;2022-12-07T22:00:05;6.10;99.90